createdAt,value
2019-01-17T00:09:26.492Z,-2.06
2019-01-17T00:12:01.126Z,-2.07
2019-01-17T00:14:38.918Z,-2.09
2019-01-17T00:17:13.794Z,-1.97
2019-01-17T00:19:48.695Z,-2.13
2019-01-17T00:39:46.837Z,-2.13
2019-01-17T00:42:21.612Z,-2.07
2019-01-17T01:19:44.637Z,-2.99
2019-01-17T01:22:19.471Z,-3.00
2019-01-17T01:24:55.283Z,-2.89
2019-01-17T01:28:01.180Z,-2.88
2019-01-17T01:47:59.071Z,-3.01
2019-01-17T01:50:34.713Z,-3.01
2019-01-17T01:53:05.613Z,-2.99
2019-01-17T01:55:35.814Z,-3.13
2019-01-17T01:58:05.391Z,-3.04
2019-01-17T02:00:35.095Z,-2.94
2019-01-17T02:03:04.499Z,-3.04
2019-01-17T02:05:34.196Z,-2.95
2019-01-17T02:08:04.046Z,-2.81
2019-01-17T02:10:33.740Z,-2.83
2019-01-17T02:13:03.159Z,-2.88
2019-01-17T02:15:32.911Z,-2.89
2019-01-17T02:18:02.371Z,-3.05
2019-01-17T02:20:32.046Z,-3.04
2019-01-17T02:40:24.425Z,-3.05
2019-01-17T02:42:54.630Z,-2.99
2019-01-17T02:45:24.369Z,-3.01
2019-01-17T02:47:54.276Z,-3.11
2019-01-17T02:50:24.071Z,-3.22
2019-01-17T02:52:53.817Z,-3.22
2019-01-17T02:55:23.491Z,-3.17
2019-01-17T02:57:53.075Z,-3.16
2019-01-17T03:00:22.843Z,-3.21
2019-01-17T03:02:52.335Z,-3.25
2019-01-17T03:05:21.697Z,-3.34
2019-01-17T03:07:51.202Z,-3.29
2019-01-17T03:10:20.877Z,-3.35
2019-01-17T03:12:50.456Z,-3.59
2019-01-17T03:15:20.047Z,-3.60
2019-01-17T03:17:49.829Z,-3.52
2019-01-17T03:37:41.937Z,-3.64
2019-01-17T03:40:14.203Z,-3.65
2019-01-17T03:42:43.953Z,-3.64
2019-01-17T03:45:13.822Z,-3.68
2019-01-17T03:47:43.547Z,-3.64
2019-01-17T03:50:14.399Z,-3.59
2019-01-17T03:52:44.116Z,-3.59
2019-01-17T03:55:15.932Z,-3.59
2019-01-17T03:57:45.658Z,-3.60
2019-01-17T04:17:37.203Z,-3.78
2019-01-17T04:20:08.582Z,-3.85
2019-01-17T04:22:38.023Z,-3.91
2019-01-17T04:25:08.578Z,-3.95
2019-01-17T04:27:38.169Z,-3.90
2019-01-17T04:30:13.615Z,-4.02
2019-01-17T04:32:43.099Z,-4.12
2019-01-17T04:35:12.809Z,-4.03
2019-01-17T04:37:42.482Z,-3.98
2019-01-17T04:40:12.398Z,-3.97
2019-01-17T04:42:42.162Z,-4.00
2019-01-17T04:45:12.542Z,-4.09
2019-01-17T04:47:42.302Z,-4.07
2019-01-17T04:50:13.196Z,-4.08
2019-01-17T04:52:43.176Z,-4.08
2019-01-17T04:55:13.234Z,-4.17
2019-01-17T05:20:52.608Z,-4.39
2019-01-17T05:23:22.104Z,-4.35
2019-01-17T05:25:51.465Z,-4.27
2019-01-17T05:28:21.841Z,-4.38
2019-01-17T05:30:51.406Z,-4.30
2019-01-17T05:33:21.157Z,-4.36
2019-01-17T05:35:50.783Z,-4.45
2019-01-17T05:38:20.354Z,-4.36
2019-01-17T05:40:50.547Z,-4.40
2019-01-17T06:00:42.407Z,-4.48
2019-01-17T06:03:12.124Z,-4.23
2019-01-17T06:05:41.821Z,-4.27
2019-01-17T06:08:11.568Z,-4.34
2019-01-17T06:10:41.232Z,-4.45
2019-01-17T06:30:32.667Z,-4.38
2019-01-17T06:33:02.453Z,-4.33
2019-01-17T06:35:32.011Z,-4.37
2019-01-17T06:38:01.512Z,-4.31
2019-01-17T06:40:32.643Z,-4.35
2019-01-17T06:43:02.061Z,-4.33
2019-01-17T06:45:31.875Z,-4.26
2019-01-17T06:48:01.465Z,-4.24
2019-01-17T06:50:31.204Z,-4.09
2019-01-17T06:53:00.995Z,-4.09
2019-01-17T06:55:34.364Z,-4.07
2019-01-17T06:58:00.542Z,-4.10
2019-01-17T07:00:29.984Z,-4.05
2019-01-17T07:02:59.054Z,-3.93
2019-01-17T07:05:34.192Z,-4.00
2019-01-17T07:08:09.148Z,-4.00
2019-01-17T07:10:45.513Z,-3.88
2019-01-17T07:13:22.292Z,-3.78
2019-01-17T07:15:57.652Z,-3.63
2019-01-17T07:36:30.040Z,-2.82
2019-01-17T07:38:59.628Z,-2.70
2019-01-17T07:41:30.500Z,-2.52
2019-01-17T07:44:00.318Z,-2.45
2019-01-17T07:46:30.388Z,-2.33
2019-01-17T07:49:00.286Z,-2.36
2019-01-17T07:51:30.067Z,-2.37
2019-01-17T07:53:59.895Z,-2.22
2019-01-17T07:56:29.733Z,-2.14
2019-01-17T08:16:21.528Z,-1.08
2019-01-17T08:18:52.254Z,-0.89
2019-01-17T08:21:21.887Z,-0.89
2019-01-17T08:23:51.843Z,-0.90
2019-01-17T08:26:21.613Z,-0.86
2019-01-17T08:46:12.457Z,0.46
2019-01-17T08:48:41.940Z,0.73
2019-01-17T08:51:11.492Z,0.63
2019-01-17T08:53:41.373Z,0.88
2019-01-17T08:56:11.100Z,1.09
2019-01-17T08:58:40.821Z,1.45
2019-01-17T09:01:10.674Z,1.59
2019-01-17T09:03:40.421Z,2.08
2019-01-17T09:06:10.135Z,2.23
2019-01-17T09:08:39.616Z,2.30
2019-01-17T09:11:09.443Z,2.57
2019-01-17T09:13:39.072Z,2.73
2019-01-17T09:16:08.809Z,2.76
2019-01-17T09:18:38.496Z,2.76
2019-01-17T09:21:08.000Z,3.27
2019-01-17T09:23:37.711Z,3.53
2019-01-17T09:26:07.830Z,3.63
2019-01-17T09:28:37.015Z,3.75
2019-01-17T09:31:06.863Z,3.95
2019-01-17T09:50:57.745Z,4.59
2019-01-17T10:10:49.503Z,5.58
2019-01-17T10:13:19.236Z,5.54
2019-01-17T10:16:10.849Z,5.40
2019-01-17T10:18:51.904Z,5.56
2019-01-17T10:21:45.027Z,4.77
2019-01-17T10:24:26.112Z,4.94
2019-01-17T10:27:08.930Z,5.26
2019-01-17T10:29:45.687Z,5.42
2019-01-17T10:32:56.100Z,5.74
2019-01-17T10:35:54.708Z,5.86
2019-01-17T10:39:36.936Z,6.28
2019-01-17T10:42:17.788Z,6.25
2019-01-17T10:46:00.519Z,6.66
2019-01-17T10:48:48.268Z,6.76
2019-01-17T10:51:42.868Z,6.70
2019-01-17T10:54:22.096Z,6.40
2019-01-17T10:57:09.424Z,6.40
2019-01-17T11:02:29.711Z,6.27
2019-01-17T11:06:14.349Z,6.21
2019-01-17T11:09:59.875Z,6.37
2019-01-17T11:30:08.532Z,6.70
2019-01-17T11:32:51.833Z,7.26
2019-01-17T11:52:56.482Z,11.83
2019-01-17T11:55:44.801Z,12.75
2019-01-17T11:58:27.027Z,13.04
2019-01-17T12:01:11.639Z,13.53
2019-01-17T12:03:52.449Z,14.07
2019-01-17T12:06:22.171Z,14.35
2019-01-17T12:08:52.395Z,14.83
2019-01-17T12:11:22.167Z,15.27
2019-01-17T12:13:51.851Z,15.64
2019-01-17T12:16:21.545Z,16.32
2019-01-17T12:18:51.074Z,16.88
2019-01-17T12:21:20.949Z,17.45
2019-01-17T12:23:50.484Z,18.15
2019-01-17T12:26:20.161Z,18.85
2019-01-17T12:28:49.823Z,19.51
2019-01-17T12:31:19.585Z,19.23
2019-01-17T12:33:49.461Z,19.30
2019-01-17T12:36:19.143Z,19.41
2019-01-17T12:56:11.328Z,20.52
2019-01-17T12:58:40.599Z,19.87
2019-01-17T13:01:16.123Z,19.36
2019-01-17T13:03:50.984Z,19.92
2019-01-17T13:06:26.178Z,19.78
2019-01-17T13:09:01.261Z,19.70
2019-01-17T13:11:36.605Z,19.81
2019-01-17T13:14:12.128Z,18.93
2019-01-17T13:16:47.026Z,19.74
2019-01-17T13:37:17.947Z,16.18
2019-01-17T13:39:47.247Z,15.70
2019-01-17T13:42:20.782Z,15.99
2019-01-17T13:44:46.259Z,15.80
2019-01-17T13:47:15.882Z,14.98
2019-01-17T13:49:45.425Z,15.71
2019-01-17T13:52:15.389Z,13.88
2019-01-17T13:54:44.880Z,13.29
2019-01-17T13:57:14.765Z,13.18
2019-01-17T13:59:44.573Z,14.03
2019-01-17T14:02:14.191Z,12.96
2019-01-17T14:04:43.836Z,12.55
2019-01-17T14:24:35.538Z,11.85
2019-01-17T14:27:05.074Z,11.37
2019-01-17T14:29:34.766Z,11.49
2019-01-17T14:49:27.233Z,7.74
2019-01-17T14:51:56.936Z,7.07
2019-01-17T14:54:26.753Z,7.09
2019-01-17T14:56:56.552Z,6.79
2019-01-17T15:16:48.372Z,5.61
2019-01-17T15:19:17.816Z,5.53
2019-01-17T15:21:47.145Z,5.55
2019-01-17T15:24:16.871Z,5.35
2019-01-17T15:26:46.480Z,5.18
2019-01-17T15:29:16.141Z,5.18
2019-01-17T15:31:45.714Z,5.20
2019-01-17T15:34:15.604Z,5.29
2019-01-17T15:36:45.170Z,5.41
2019-01-17T15:39:14.716Z,5.39
2019-01-17T15:41:44.581Z,5.20
2019-01-17T15:44:14.411Z,5.15
2019-01-17T15:46:43.798Z,4.99
2019-01-17T15:49:13.134Z,5.24
2019-01-17T15:51:42.813Z,4.90
2019-01-17T15:54:12.212Z,4.77
2019-01-17T15:56:41.864Z,4.62
2019-01-17T15:59:11.430Z,4.72
2019-01-17T16:01:41.011Z,4.57
2019-01-17T16:04:10.520Z,4.52
2019-01-17T16:06:40.327Z,3.90
2019-01-17T16:09:10.526Z,3.82
2019-01-17T16:11:40.262Z,3.47
2019-01-17T16:14:09.803Z,3.08
2019-01-17T16:16:39.569Z,2.83
2019-01-17T16:19:08.985Z,2.55
2019-01-17T16:21:38.513Z,2.56
2019-01-17T16:24:08.263Z,2.47
2019-01-17T16:26:38.080Z,2.66
2019-01-17T16:29:07.887Z,2.56
2019-01-17T16:31:38.042Z,2.53
2019-01-17T16:34:08.577Z,2.33
2019-01-17T16:36:38.874Z,2.17
2019-01-17T16:39:09.198Z,2.35
2019-01-17T16:41:39.743Z,2.63
2019-01-17T16:44:09.658Z,2.79
2019-01-17T16:46:39.878Z,2.89
2019-01-17T16:49:10.197Z,2.67
2019-01-17T16:51:40.089Z,2.65
2019-01-17T16:54:09.914Z,2.76
2019-01-17T16:56:40.290Z,2.57
2019-01-17T16:59:10.055Z,2.29
2019-01-17T17:01:40.632Z,2.35
2019-01-17T17:04:12.533Z,2.34
2019-01-17T17:06:42.320Z,2.47
2019-01-17T17:09:12.869Z,2.43
2019-01-17T17:11:42.945Z,2.43
2019-01-17T17:14:13.135Z,2.34
2019-01-17T17:16:43.069Z,2.29
2019-01-17T17:19:12.634Z,2.21
2019-01-17T17:21:42.245Z,2.19
2019-01-17T17:24:11.987Z,2.01
2019-01-17T17:26:41.726Z,1.69
2019-01-17T17:29:11.620Z,1.49
2019-01-17T17:31:41.227Z,1.37
2019-01-17T17:34:11.339Z,1.26
2019-01-17T17:36:40.798Z,1.17
2019-01-17T17:39:10.609Z,1.50
2019-01-17T17:41:40.196Z,1.58
2019-01-17T17:44:09.918Z,1.45
2019-01-17T17:46:39.571Z,1.37
2019-01-17T17:49:10.117Z,1.36
2019-01-17T17:51:39.846Z,1.17
2019-01-17T17:54:10.355Z,0.77
2019-01-17T17:56:39.841Z,0.48
2019-01-17T17:59:09.607Z,0.40
2019-01-17T18:01:41.638Z,0.35
2019-01-17T18:04:11.467Z,0.45
2019-01-17T18:06:41.311Z,0.69
2019-01-17T18:09:11.409Z,0.54
2019-01-17T18:11:41.373Z,0.38
2019-01-17T18:14:11.079Z,0.18
2019-01-17T18:16:40.956Z,0.09
2019-01-17T18:19:10.765Z,0.02
2019-01-17T18:21:40.474Z,-0.01
2019-01-17T18:24:10.311Z,0.05
2019-01-17T18:26:39.619Z,0.24
2019-01-17T18:29:09.112Z,0.06
2019-01-17T18:31:38.939Z,-0.13
2019-01-17T18:34:09.061Z,0.11
2019-01-17T18:36:38.820Z,0.28
2019-01-17T18:39:12.392Z,0.27
2019-01-17T18:41:42.098Z,0.39
2019-01-17T18:44:11.863Z,0.43
2019-01-17T18:46:41.547Z,0.50
2019-01-17T18:49:11.203Z,0.35
2019-01-17T18:51:40.856Z,0.37
2019-01-17T18:54:10.578Z,0.20
2019-01-17T18:56:40.124Z,0.32
2019-01-17T18:59:09.747Z,0.39
2019-01-17T19:01:39.544Z,-0.01
2019-01-17T19:04:09.908Z,0.06
2019-01-17T19:06:39.858Z,0.14
2019-01-17T19:09:09.593Z,0.21
2019-01-17T19:11:39.566Z,0.11
2019-01-17T19:14:09.524Z,0.07
2019-01-17T19:16:38.990Z,0.20
2019-01-17T19:19:08.708Z,0.03
2019-01-17T19:21:38.218Z,-0.53
2019-01-17T19:24:08.044Z,-0.38
2019-01-17T19:26:37.863Z,-0.40
2019-01-17T19:29:07.336Z,-0.39
2019-01-17T19:31:37.138Z,-0.28
2019-01-17T19:34:06.719Z,-0.37
2019-01-17T19:36:37.436Z,-0.43
2019-01-17T19:39:11.335Z,-0.46
2019-01-17T19:41:41.432Z,-0.49
2019-01-17T19:44:11.045Z,-0.51
2019-01-17T19:46:40.698Z,-0.89
2019-01-17T19:49:10.471Z,-0.98
2019-01-17T19:51:40.151Z,-1.00
2019-01-17T19:54:09.522Z,-0.78
2019-01-17T19:56:39.232Z,-0.76
2019-01-17T19:59:08.866Z,-0.71
2019-01-17T20:01:38.367Z,-0.80
2019-01-17T20:04:08.302Z,-0.69
2019-01-17T20:06:37.665Z,-0.86
2019-01-17T20:09:08.668Z,-0.93
2019-01-17T20:11:38.473Z,-1.02
2019-01-17T20:14:07.931Z,-1.16
2019-01-17T20:16:37.643Z,-1.28
2019-01-17T20:19:07.044Z,-1.14
2019-01-17T20:21:36.771Z,-1.04
2019-01-17T20:24:06.616Z,-1.04
2019-01-17T20:26:36.111Z,-1.06
2019-01-17T20:29:05.804Z,-1.21
2019-01-17T20:31:35.623Z,-1.07
2019-01-17T20:34:05.206Z,-1.02
2019-01-17T20:36:34.836Z,-1.02
2019-01-17T20:39:04.899Z,-0.85
2019-01-17T20:41:34.348Z,-0.96
2019-01-17T20:44:03.833Z,-0.97
2019-01-17T20:46:33.342Z,-1.10
2019-01-17T20:49:02.993Z,-1.14
2019-01-17T20:51:32.557Z,-1.25
2019-01-17T20:54:02.253Z,-1.22
2019-01-17T20:56:32.001Z,-1.15
2019-01-17T20:59:01.573Z,-1.35
2019-01-17T21:02:00.663Z,-1.45
2019-01-17T21:04:30.116Z,-1.36
2019-01-17T21:07:05.506Z,-1.30
2019-01-17T21:09:29.615Z,-1.41
2019-01-17T21:11:59.065Z,-1.28
2019-01-17T21:14:28.794Z,-1.28
2019-01-17T21:16:58.334Z,-1.50
2019-01-17T21:19:27.968Z,-1.50
2019-01-17T21:21:57.337Z,-1.56
2019-01-17T21:24:26.904Z,-1.56
2019-01-17T21:26:56.377Z,-1.52
2019-01-17T21:29:26.086Z,-1.58
2019-01-17T21:31:55.679Z,-1.65
2019-01-17T21:34:25.456Z,-1.62
2019-01-17T21:36:55.075Z,-1.82
2019-01-17T21:39:25.024Z,-1.80
2019-01-17T21:41:54.521Z,-1.80
2019-01-17T21:44:24.043Z,-1.72
2019-01-17T21:46:54.316Z,-1.73
2019-01-17T21:49:23.979Z,-1.77
2019-01-17T21:51:53.566Z,-1.69
2019-01-17T21:54:23.227Z,-2.01
2019-01-17T21:56:52.847Z,-1.97
2019-01-17T21:59:22.445Z,-2.09
2019-01-17T22:01:51.850Z,-2.16
2019-01-17T22:04:21.547Z,-2.05
2019-01-17T22:06:51.269Z,-2.09
2019-01-17T22:09:20.874Z,-2.08
2019-01-17T22:11:50.378Z,-2.10
2019-01-17T22:14:19.862Z,-2.17
2019-01-17T22:16:49.582Z,-2.20
2019-01-17T22:19:19.068Z,-2.25
2019-01-17T22:21:48.672Z,-2.35
2019-01-17T22:24:18.467Z,-2.27
2019-01-17T22:26:47.995Z,-2.31
2019-01-17T22:29:17.781Z,-2.28
2019-01-17T22:31:47.464Z,-2.25
2019-01-17T22:34:17.137Z,-2.30
2019-01-17T22:36:46.536Z,-2.37
2019-01-17T22:39:16.429Z,-2.35
2019-01-17T22:41:46.165Z,-2.42
2019-01-17T22:44:15.750Z,-2.40
2019-01-17T22:46:45.528Z,-2.61
2019-01-17T22:49:15.167Z,-2.64
2019-01-17T22:51:44.679Z,-2.70
2019-01-17T22:54:14.126Z,-2.77
2019-01-17T22:56:43.634Z,-2.63
2019-01-17T22:59:13.334Z,-2.77
2019-01-17T23:01:42.975Z,-2.70
2019-01-17T23:04:12.432Z,-2.76
2019-01-17T23:06:41.916Z,-2.78
2019-01-17T23:09:11.471Z,-2.97
2019-01-17T23:11:41.152Z,-2.94
2019-01-17T23:14:10.684Z,-2.92
2019-01-17T23:16:40.411Z,-3.05
2019-01-17T23:19:10.098Z,-3.13
2019-01-17T23:21:39.691Z,-3.01
2019-01-17T23:24:09.327Z,-3.05
2019-01-17T23:26:39.047Z,-3.02
2019-01-17T23:29:08.729Z,-3.10
2019-01-17T23:31:38.370Z,-3.05
2019-01-17T23:34:07.914Z,-2.95
2019-01-17T23:36:37.331Z,-3.02
2019-01-17T23:39:08.140Z,-2.99
2019-01-17T23:41:37.778Z,-3.01
2019-01-17T23:44:07.286Z,-3.09
2019-01-17T23:46:37.023Z,-3.04
2019-01-17T23:49:06.652Z,-3.08
2019-01-17T23:51:36.359Z,-3.11
2019-01-17T23:54:06.010Z,-3.22
2019-01-17T23:56:35.723Z,-3.17
2019-01-17T23:59:05.336Z,-3.19
